createdAt,value
2018-02-09T00:00:42.451Z,69.90
2018-02-09T00:03:08.688Z,69.90
2018-02-09T00:05:35.237Z,69.90
2018-02-09T00:08:01.386Z,69.90
2018-02-09T00:10:28.274Z,70.40
2018-02-09T00:12:54.463Z,70.10
2018-02-09T00:15:21.770Z,69.90
2018-02-09T00:17:48.002Z,70.10
2018-02-09T00:20:14.581Z,69.80
2018-02-09T00:22:52.206Z,70.10
2018-02-09T00:25:18.360Z,70.30
2018-02-09T00:27:44.890Z,70.00
2018-02-09T00:30:11.054Z,70.20
2018-02-09T00:32:37.966Z,70.60
2018-02-09T00:35:04.143Z,70.20
2018-02-09T00:37:31.121Z,70.10
2018-02-09T00:39:57.256Z,70.50
2018-02-09T00:42:24.201Z,70.00
2018-02-09T00:44:50.356Z,70.40
2018-02-09T00:47:16.512Z,70.80
2018-02-09T00:49:43.438Z,71.40
2018-02-09T00:52:09.639Z,71.00
2018-02-09T00:54:35.824Z,70.60
2018-02-09T00:57:02.715Z,70.80
2018-02-09T00:59:29.271Z,70.10
2018-02-09T01:01:55.470Z,70.40
2018-02-09T01:04:22.416Z,70.10
2018-02-09T01:06:48.954Z,70.10
2018-02-09T01:09:15.208Z,70.20
2018-02-09T01:11:41.432Z,70.60
2018-02-09T01:14:07.651Z,70.60
2018-02-09T01:16:34.177Z,70.40
2018-02-09T01:19:00.706Z,70.20
2018-02-09T01:21:26.902Z,70.20
2018-02-09T01:23:53.769Z,70.70
2018-02-09T01:26:19.995Z,70.20
2018-02-09T01:28:46.197Z,70.20
2018-02-09T01:31:13.106Z,70.60
2018-02-09T01:33:39.270Z,70.30
2018-02-09T01:36:06.210Z,70.80
2018-02-09T01:38:33.136Z,71.30
2018-02-09T01:40:59.318Z,71.70
2018-02-09T01:43:25.499Z,72.10
2018-02-09T01:45:51.715Z,72.30
2018-02-09T01:48:17.881Z,72.70
2018-02-09T01:50:44.406Z,72.60
2018-02-09T01:53:11.328Z,73.20
2018-02-09T01:55:37.482Z,72.60
2018-02-09T01:58:04.430Z,73.20
2018-02-09T02:00:31.380Z,73.20
2018-02-09T02:02:58.360Z,73.20
2018-02-09T02:05:24.539Z,72.60
2018-02-09T02:07:51.519Z,73.20
2018-02-09T02:10:17.728Z,73.20
2018-02-09T02:12:44.656Z,73.20
2018-02-09T02:15:11.193Z,72.70
2018-02-09T02:17:37.363Z,72.80
2018-02-09T02:20:03.529Z,72.90
2018-02-09T02:22:29.677Z,72.10
2018-02-09T02:24:55.846Z,71.40
2018-02-09T02:27:21.996Z,71.10
2018-02-09T02:29:48.543Z,71.00
2018-02-09T02:32:14.699Z,71.00
2018-02-09T02:34:41.641Z,70.70
2018-02-09T02:37:08.535Z,70.60
2018-02-09T02:39:34.707Z,70.60
2018-02-09T02:42:00.934Z,70.80
2018-02-09T02:44:27.058Z,70.90
2018-02-09T02:46:53.297Z,71.20
2018-02-09T02:49:20.238Z,72.00
2018-02-09T02:51:46.672Z,71.30
2018-02-09T02:54:28.254Z,70.90
2018-02-09T02:56:54.614Z,71.10
2018-02-09T02:59:20.765Z,71.10
2018-02-09T03:01:46.972Z,71.80
2018-02-09T03:04:13.846Z,72.10
2018-02-09T03:06:40.041Z,71.60
2018-02-09T03:09:07.004Z,72.20
2018-02-09T03:11:33.202Z,71.90
2018-02-09T03:14:00.135Z,72.10
2018-02-09T03:16:26.337Z,71.80
2018-02-09T03:18:52.523Z,72.10
2018-02-09T03:21:19.432Z,72.70
2018-02-09T03:23:45.610Z,72.20
2018-02-09T03:26:11.789Z,71.90
2018-02-09T03:28:37.979Z,72.40
2018-02-09T03:31:04.146Z,71.70
2018-02-09T03:33:30.312Z,71.40
2018-02-09T03:35:56.498Z,72.10
2018-02-09T03:38:22.631Z,71.80
2018-02-09T03:40:48.801Z,71.60
2018-02-09T03:43:14.961Z,71.60
2018-02-09T03:45:41.135Z,72.30
2018-02-09T03:48:08.059Z,72.60
2018-02-09T03:50:34.260Z,72.60
2018-02-09T03:53:00.441Z,72.80
2018-02-09T03:55:27.369Z,72.90
2018-02-09T03:57:54.330Z,73.00
2018-02-09T04:00:21.262Z,72.40
2018-02-09T04:02:47.449Z,71.30
2018-02-09T04:05:13.661Z,71.50
2018-02-09T04:07:39.885Z,71.70
2018-02-09T04:10:06.047Z,72.00
2018-02-09T04:12:32.221Z,71.70
2018-02-09T04:14:58.744Z,71.00
2018-02-09T04:17:25.667Z,71.60
2018-02-09T04:19:51.832Z,71.50
2018-02-09T04:22:18.759Z,72.10
2018-02-09T04:24:44.932Z,72.10
2018-02-09T04:27:11.105Z,72.10
2018-02-09T04:29:37.318Z,72.40
2018-02-09T04:32:03.548Z,72.80
2018-02-09T04:34:30.121Z,72.80
2018-02-09T04:36:57.018Z,73.30
2018-02-09T04:39:23.199Z,72.40
2018-02-09T04:41:50.111Z,72.40
2018-02-09T04:44:16.262Z,71.80
2018-02-09T04:46:42.794Z,71.70
2018-02-09T04:49:09.737Z,72.30
2018-02-09T04:51:35.914Z,72.10
2018-02-09T04:54:02.055Z,72.60
2018-02-09T04:56:28.268Z,72.80
2018-02-09T04:58:54.433Z,73.10
2018-02-09T05:01:20.587Z,73.40
2018-02-09T05:03:47.514Z,73.90
2018-02-09T05:06:13.684Z,73.90
2018-02-09T05:08:39.814Z,74.10
2018-02-09T05:11:06.032Z,74.30
2018-02-09T05:13:32.165Z,74.10
2018-02-09T05:15:58.383Z,74.40
2018-02-09T05:18:24.608Z,74.30
2018-02-09T05:20:51.242Z,73.30
2018-02-09T05:23:18.149Z,73.90
2018-02-09T05:25:44.441Z,73.40
2018-02-09T05:28:11.081Z,73.30
2018-02-09T05:30:37.300Z,73.20
2018-02-09T05:33:03.498Z,75.00
2018-02-09T05:35:30.607Z,75.40
2018-02-09T05:37:56.786Z,75.80
2018-02-09T05:40:23.664Z,76.00
2018-02-09T05:42:50.073Z,75.70
2018-02-09T05:45:17.407Z,76.40
2018-02-09T05:47:44.425Z,76.60
2018-02-09T05:50:10.573Z,76.50
2018-02-09T05:52:36.788Z,76.80
2018-02-09T05:55:02.951Z,76.80
2018-02-09T05:57:29.873Z,77.50
2018-02-09T05:59:56.480Z,76.80
2018-02-09T06:02:22.757Z,77.60
2018-02-09T06:04:49.329Z,77.60
2018-02-09T06:07:15.468Z,77.40
2018-02-09T06:09:41.681Z,77.30
2018-02-09T06:12:08.229Z,77.40
2018-02-09T06:14:34.588Z,77.10
2018-02-09T06:17:00.768Z,77.10
2018-02-09T06:19:26.935Z,77.50
2018-02-09T06:21:53.069Z,77.20
2018-02-09T06:24:19.600Z,77.00
2018-02-09T06:26:45.766Z,76.60
2018-02-09T06:29:12.697Z,77.30
2018-02-09T06:31:38.849Z,77.10
2018-02-09T06:34:05.793Z,77.80
2018-02-09T06:36:36.757Z,77.80
2018-02-09T06:39:02.942Z,77.40
2018-02-09T06:41:29.101Z,77.50
2018-02-09T06:43:55.373Z,77.50
2018-02-09T06:46:21.533Z,77.30
2018-02-09T06:48:47.754Z,77.60
2018-02-09T06:51:13.941Z,76.50
2018-02-09T06:53:40.115Z,76.10
2018-02-09T06:56:06.298Z,76.20
2018-02-09T06:58:32.470Z,76.00
2018-02-09T07:00:58.650Z,76.20
2018-02-09T07:03:24.860Z,76.60
2018-02-09T07:05:51.048Z,76.00
2018-02-09T07:08:18.720Z,76.30
2018-02-09T07:10:44.853Z,76.10
2018-02-09T07:13:11.777Z,76.50
2018-02-09T07:15:37.934Z,76.10
2018-02-09T07:18:04.907Z,76.30
2018-02-09T07:20:31.086Z,75.80
2018-02-09T07:22:57.327Z,75.40
2018-02-09T07:25:23.470Z,76.40
2018-02-09T07:27:50.806Z,77.00
2018-02-09T07:30:17.027Z,76.40
2018-02-09T07:32:43.215Z,76.00
2018-02-09T07:35:09.413Z,75.50
2018-02-09T07:37:35.700Z,75.60
2018-02-09T07:40:02.720Z,75.50
2018-02-09T07:42:28.939Z,75.00
2018-02-09T07:44:55.204Z,75.50
2018-02-09T07:47:21.415Z,75.60
2018-02-09T07:49:47.625Z,75.80
2018-02-09T07:52:13.796Z,75.50
2018-02-09T07:54:39.991Z,75.50
2018-02-09T07:57:06.168Z,75.30
2018-02-09T07:59:32.347Z,75.00
2018-02-09T08:01:58.582Z,74.70
2018-02-09T08:04:24.838Z,74.50
2018-02-09T08:06:51.052Z,74.40
2018-02-09T08:09:17.191Z,74.50
2018-02-09T08:11:43.455Z,74.20
2018-02-09T08:14:10.364Z,75.00
2018-02-09T08:16:36.563Z,74.40
2018-02-09T08:19:02.726Z,74.20
2018-02-09T08:21:28.943Z,74.00
2018-02-09T08:23:55.150Z,74.10
2018-02-09T08:26:21.388Z,74.20
2018-02-09T08:28:47.578Z,74.50
2018-02-09T08:31:13.773Z,74.50
2018-02-09T08:33:40.721Z,74.70
2018-02-09T08:36:06.951Z,74.40
2018-02-09T08:38:33.124Z,74.00
2018-02-09T08:40:59.272Z,74.60
2018-02-09T08:43:25.520Z,75.70
2018-02-09T08:45:51.693Z,75.70
2018-02-09T08:48:17.939Z,75.60
2018-02-09T08:50:44.136Z,74.90
2018-02-09T08:53:11.089Z,75.50
2018-02-09T08:55:38.055Z,74.80
2018-02-09T08:58:04.279Z,74.30
2018-02-09T09:00:30.447Z,74.30
2018-02-09T09:02:57.621Z,74.50
2018-02-09T09:05:23.811Z,74.00
2018-02-09T09:07:50.007Z,74.30
2018-02-09T09:10:16.331Z,74.60
2018-02-09T09:12:43.226Z,75.10
2018-02-09T09:15:09.821Z,74.50
2018-02-09T09:17:36.734Z,73.80
2018-02-09T09:20:02.954Z,74.50
2018-02-09T09:22:29.130Z,73.90
2018-02-09T09:24:55.305Z,74.00
2018-02-09T09:27:21.478Z,74.10
2018-02-09T09:29:48.361Z,74.10
2018-02-09T09:32:14.556Z,73.50
2018-02-09T09:34:40.730Z,73.40
2018-02-09T09:37:06.910Z,73.10
2018-02-09T09:39:33.218Z,76.40
2018-02-09T09:42:00.190Z,73.50
2018-02-09T09:44:26.360Z,71.00
2018-02-09T09:46:52.560Z,72.90
2018-02-09T09:49:18.726Z,73.40
2018-02-09T09:51:44.908Z,73.70
2018-02-09T09:54:11.066Z,73.80
2018-02-09T09:56:38.117Z,73.50
2018-02-09T09:59:04.291Z,73.80
2018-02-09T10:01:30.842Z,73.20
2018-02-09T10:03:57.011Z,73.20
2018-02-09T10:06:23.214Z,73.40
2018-02-09T10:08:49.442Z,73.60
2018-02-09T10:11:15.626Z,73.50
2018-02-09T10:13:42.542Z,85.60
2018-02-09T10:16:08.846Z,86.20
2018-02-09T10:18:34.975Z,83.70
2018-02-09T10:21:01.160Z,70.50
2018-02-09T10:23:27.411Z,69.00
2018-02-09T10:25:53.556Z,71.00
2018-02-09T10:28:19.728Z,70.60
2018-02-09T10:30:45.909Z,70.20
2018-02-09T10:33:12.457Z,71.30
2018-02-09T10:35:38.623Z,71.60
2018-02-09T10:38:04.801Z,72.20
2018-02-09T10:40:31.029Z,72.50
2018-02-09T10:42:57.226Z,72.50
2018-02-09T10:45:24.176Z,72.60
2018-02-09T10:47:51.124Z,72.80
2018-02-09T10:50:17.258Z,72.20
2018-02-09T10:52:44.225Z,72.50
2018-02-09T10:55:10.384Z,72.00
2018-02-09T10:57:36.570Z,72.30
2018-02-09T11:00:02.841Z,72.30
2018-02-09T11:02:29.754Z,72.60
2018-02-09T11:04:55.948Z,72.50
2018-02-09T11:07:22.912Z,73.30
2018-02-09T11:09:50.265Z,73.10
2018-02-09T11:12:26.426Z,73.20
2018-02-09T11:14:53.345Z,74.00
2018-02-09T11:17:20.285Z,73.80
2018-02-09T11:19:46.474Z,73.70
2018-02-09T11:22:12.707Z,73.60
2018-02-09T11:24:38.922Z,74.50
2018-02-09T11:27:05.153Z,73.70
2018-02-09T11:29:32.030Z,74.00
2018-02-09T11:31:58.257Z,73.80
2018-02-09T11:34:24.439Z,73.70
2018-02-09T11:36:50.648Z,74.10
2018-02-09T11:39:17.574Z,74.10
2018-02-09T11:41:43.729Z,73.40
2018-02-09T11:44:10.723Z,73.80
2018-02-09T11:46:36.950Z,73.20
2018-02-09T11:49:03.138Z,73.90
2018-02-09T11:51:30.082Z,74.40
2018-02-09T11:53:56.981Z,74.60
2018-02-09T11:56:23.220Z,74.80
2018-02-09T11:58:49.397Z,74.80
2018-02-09T12:01:15.591Z,74.80
2018-02-09T12:03:42.578Z,75.50
2018-02-09T12:06:08.759Z,74.70
2018-02-09T12:08:34.946Z,74.80
2018-02-09T12:11:01.291Z,74.80
2018-02-09T12:13:27.485Z,74.90
2018-02-09T12:15:53.693Z,74.90
2018-02-09T12:18:20.672Z,77.20
2018-02-09T12:20:46.940Z,75.80
2018-02-09T12:23:13.170Z,75.50
2018-02-09T12:25:39.356Z,76.00
2018-02-09T12:28:05.582Z,74.70
2018-02-09T12:30:31.795Z,75.20
2018-02-09T12:32:58.734Z,75.60
2018-02-09T12:35:25.633Z,75.70
2018-02-09T12:37:51.802Z,75.20
2018-02-09T12:40:18.703Z,75.60
2018-02-09T12:42:44.890Z,76.00
2018-02-09T12:45:11.114Z,75.50
2018-02-09T12:47:38.047Z,76.60
2018-02-09T12:50:04.983Z,77.00
2018-02-09T12:52:31.888Z,76.20
2018-02-09T12:54:58.052Z,76.10
2018-02-09T12:57:24.238Z,76.00
2018-02-09T12:59:50.454Z,75.80
2018-02-09T13:02:16.994Z,75.10
2018-02-09T13:04:43.182Z,76.60
2018-02-09T13:07:10.114Z,78.30
2018-02-09T13:09:36.332Z,76.80
2018-02-09T13:12:02.676Z,77.00
2018-02-09T13:14:40.981Z,76.90
2018-02-09T13:17:07.946Z,77.10
2018-02-09T13:19:34.122Z,76.50
2018-02-09T13:22:00.379Z,76.60
2018-02-09T13:24:26.588Z,76.60
2018-02-09T13:26:52.795Z,76.50
2018-02-09T13:29:19.059Z,76.50
2018-02-09T13:31:45.262Z,76.50
2018-02-09T13:34:11.467Z,77.00
2018-02-09T13:39:36.385Z,77.60
2018-02-09T13:42:02.585Z,77.00
2018-02-09T13:44:28.797Z,77.30
2018-02-09T13:46:54.960Z,77.10
2018-02-09T13:49:21.899Z,77.30
2018-02-09T13:51:48.116Z,77.00
2018-02-09T13:54:14.335Z,77.10
2018-02-09T13:56:40.610Z,76.90
2018-02-09T13:59:06.804Z,76.70
2018-02-09T14:01:33.051Z,76.50
2018-02-09T14:03:59.990Z,77.60
2018-02-09T14:06:26.933Z,77.50
2018-02-09T14:08:53.129Z,77.10
2018-02-09T14:11:20.083Z,77.10
2018-02-09T14:13:46.233Z,77.50
2018-02-09T14:16:13.261Z,78.00
2018-02-09T14:18:39.440Z,76.90
2018-02-09T14:21:05.718Z,76.70
2018-02-09T14:23:31.915Z,76.70
2018-02-09T14:25:58.094Z,76.80
2018-02-09T14:28:24.250Z,76.70
2018-02-09T14:30:50.429Z,76.50
2018-02-09T14:33:16.628Z,76.90
2018-02-09T14:35:42.842Z,76.50
2018-02-09T14:38:09.876Z,76.40
2018-02-09T14:40:36.849Z,76.70
2018-02-09T14:43:03.068Z,76.00
2018-02-09T14:45:29.265Z,76.20
2018-02-09T14:47:55.453Z,76.20
2018-02-09T14:50:21.654Z,76.00
2018-02-09T14:52:47.832Z,76.10
2018-02-09T14:55:14.052Z,76.00
2018-02-09T14:57:40.339Z,76.20
2018-02-09T15:00:06.554Z,76.10
2018-02-09T15:02:32.791Z,76.30
2018-02-09T15:04:59.728Z,75.90
2018-02-09T15:07:27.279Z,76.30
2018-02-09T15:09:54.220Z,76.40
2018-02-09T15:12:21.172Z,76.50
2018-02-09T15:14:48.145Z,76.40
2018-02-09T15:17:14.336Z,76.00
2018-02-09T15:19:40.474Z,76.00
2018-02-09T15:22:07.386Z,75.70
2018-02-09T15:24:33.635Z,75.10
2018-02-09T15:27:00.594Z,76.50
2018-02-09T15:29:27.554Z,76.50
2018-02-09T15:31:53.757Z,76.20
2018-02-09T15:34:20.791Z,77.50
2018-02-09T15:36:46.991Z,76.40
2018-02-09T15:39:13.305Z,76.60
2018-02-09T15:41:39.540Z,76.90
2018-02-09T15:44:05.712Z,77.20
2018-02-09T15:46:31.902Z,76.50
2018-02-09T15:48:58.072Z,77.00
2018-02-09T15:51:24.271Z,76.60
2018-02-09T15:53:50.449Z,76.50
2018-02-09T15:56:17.371Z,77.20
2018-02-09T15:58:43.553Z,76.80
2018-02-09T16:01:09.745Z,76.20
2018-02-09T16:03:36.652Z,76.80
2018-02-09T16:06:02.887Z,76.20
2018-02-09T16:08:29.159Z,76.80
2018-02-09T16:10:56.085Z,77.00
2018-02-09T16:13:22.236Z,76.80
2018-02-09T16:15:48.437Z,76.50
2018-02-09T16:18:14.646Z,77.30
2018-02-09T16:20:40.877Z,76.60
2018-02-09T16:23:07.093Z,76.70
2018-02-09T16:25:33.290Z,76.50
2018-02-09T16:27:59.490Z,76.70
2018-02-09T16:30:26.387Z,77.30
2018-02-09T16:32:52.951Z,76.50
2018-02-09T16:35:19.492Z,76.50
2018-02-09T16:37:45.701Z,77.20
2018-02-09T16:40:11.898Z,79.50
2018-02-09T16:42:38.090Z,77.20
2018-02-09T16:45:04.299Z,77.30
2018-02-09T16:47:30.479Z,77.40
2018-02-09T16:49:56.651Z,77.20
2018-02-09T16:52:23.241Z,77.20
2018-02-09T16:54:49.473Z,77.50
2018-02-09T16:57:16.408Z,77.50
2018-02-09T16:59:42.636Z,77.70
2018-02-09T17:02:08.827Z,77.80
2018-02-09T17:04:35.058Z,78.00
2018-02-09T17:07:01.257Z,78.40
2018-02-09T17:09:27.482Z,76.90
2018-02-09T17:11:55.192Z,76.80
2018-02-09T17:14:22.168Z,77.60
2018-02-09T17:16:48.368Z,77.10
2018-02-09T17:19:15.346Z,77.70
2018-02-09T17:21:41.496Z,77.20
2018-02-09T17:24:07.683Z,77.60
2018-02-09T17:26:34.573Z,77.90
2018-02-09T17:29:01.507Z,77.80
2018-02-09T17:31:27.727Z,77.40
2018-02-09T17:33:53.993Z,77.10
2018-02-09T17:36:20.217Z,77.40
2018-02-09T17:38:46.423Z,77.30
2018-02-09T17:41:13.096Z,77.50
2018-02-09T17:43:39.260Z,77.50
2018-02-09T17:46:06.188Z,77.70
2018-02-09T17:48:32.770Z,77.30
2018-02-09T17:50:58.947Z,77.90
2018-02-09T17:53:25.131Z,77.80
2018-02-09T17:55:51.350Z,77.50
2018-02-09T17:58:18.872Z,77.60
2018-02-09T18:00:45.226Z,77.50
2018-02-09T18:03:11.400Z,77.40
2018-02-09T18:05:37.629Z,77.70
2018-02-09T18:08:03.844Z,77.80
2018-02-09T18:10:30.066Z,77.70
2018-02-09T18:12:56.257Z,77.80
2018-02-09T18:15:22.830Z,77.40
2018-02-09T18:17:49.001Z,77.70
2018-02-09T18:20:15.222Z,78.10
2018-02-09T18:22:41.427Z,77.80
2018-02-09T18:25:07.689Z,77.70
2018-02-09T18:27:33.919Z,77.60
2018-02-09T18:30:00.125Z,78.00
2018-02-09T18:32:26.316Z,77.50
2018-02-09T18:34:52.500Z,77.80
2018-02-09T18:37:18.725Z,77.90
2018-02-09T18:39:46.394Z,81.00
2018-02-09T18:42:12.566Z,84.40
2018-02-09T18:44:39.267Z,77.20
2018-02-09T18:47:06.251Z,76.60
2018-02-09T18:49:32.517Z,75.90
2018-02-09T18:51:58.767Z,75.60
2018-02-09T18:54:24.973Z,75.60
2018-02-09T18:56:51.213Z,76.10
2018-02-09T18:59:17.456Z,76.30
2018-02-09T19:11:33.669Z,77.60
2018-02-09T19:13:59.865Z,77.60
2018-02-09T19:16:26.781Z,77.80
2018-02-09T19:18:52.990Z,77.70
2018-02-09T19:21:19.158Z,77.30
2018-02-09T19:23:46.141Z,77.70
2018-02-09T19:26:12.361Z,77.60
2018-02-09T19:28:38.553Z,77.10
2018-02-09T19:31:06.281Z,77.20
2018-02-09T19:33:32.478Z,77.00
2018-02-09T19:35:58.720Z,76.70
2018-02-09T19:38:24.974Z,76.60
2018-02-09T19:40:51.927Z,76.70
2018-02-09T19:43:18.119Z,77.00
2018-02-09T19:45:44.361Z,76.70
2018-02-09T19:48:10.596Z,76.80
2018-02-09T19:50:36.808Z,76.60
2018-02-09T19:53:03.100Z,76.70
2018-02-09T19:55:29.236Z,76.60
2018-02-09T19:57:56.208Z,76.50
2018-02-09T20:00:22.359Z,76.50
2018-02-09T20:02:48.582Z,76.40
2018-02-09T20:05:14.827Z,76.10
2018-02-09T20:10:30.643Z,75.60
2018-02-09T20:12:56.837Z,75.70
2018-02-09T20:15:23.047Z,76.10
2018-02-09T20:17:49.981Z,76.50
2018-02-09T20:20:16.927Z,76.40
2018-02-09T20:22:43.167Z,76.40
2018-02-09T20:25:09.811Z,76.30
2018-02-09T20:27:36.129Z,76.40
2018-02-09T20:30:03.098Z,76.60
2018-02-09T20:32:29.266Z,76.20
2018-02-09T20:34:55.503Z,76.10
2018-02-09T20:37:21.801Z,76.00
2018-02-09T20:39:48.176Z,75.90
2018-02-09T20:42:14.431Z,75.70
2018-02-09T20:44:41.372Z,76.00
2018-02-09T20:47:08.325Z,76.10
2018-02-09T20:49:34.581Z,75.60
2018-02-09T20:52:00.809Z,75.90
2018-02-09T20:54:27.004Z,75.60
2018-02-09T20:56:54.364Z,75.90
2018-02-09T20:59:21.330Z,75.90
2018-02-09T21:01:47.659Z,75.40
2018-02-09T21:04:14.907Z,75.40
2018-02-09T21:06:41.106Z,75.90
2018-02-09T21:09:08.103Z,77.40
2018-02-09T21:11:34.345Z,76.50
2018-02-09T21:14:00.596Z,76.50
2018-02-09T21:16:26.922Z,77.00
2018-02-09T21:18:53.508Z,78.70
2018-02-09T21:21:19.674Z,76.90
2018-02-09T21:23:45.871Z,77.40
2018-02-09T21:26:12.113Z,77.30
2018-02-09T21:28:38.358Z,77.10
2018-02-09T21:31:04.574Z,77.00
2018-02-09T21:33:30.756Z,77.30
2018-02-09T21:35:57.945Z,77.70
2018-02-09T21:38:24.179Z,77.40
2018-02-09T21:40:50.388Z,77.90
2018-02-09T21:43:16.630Z,77.80
2018-02-09T21:45:42.859Z,78.00
2018-02-09T21:48:09.058Z,77.30
2018-02-09T21:50:36.030Z,77.70
2018-02-09T21:53:02.262Z,77.60
2018-02-09T21:55:28.493Z,77.20
2018-02-09T21:57:54.708Z,77.60
2018-02-09T22:00:20.897Z,77.60
2018-02-09T22:02:47.102Z,78.00
2018-02-09T22:05:13.274Z,77.20
2018-02-09T22:07:40.178Z,78.20
2018-02-09T22:10:06.403Z,77.30
2018-02-09T22:12:32.596Z,77.50
2018-02-09T22:14:58.799Z,77.60
2018-02-09T22:17:24.995Z,77.80
2018-02-09T22:19:51.190Z,78.10
2018-02-09T22:22:17.380Z,78.10
2018-02-09T22:24:43.636Z,78.30
2018-02-09T22:27:09.847Z,78.50
2018-02-09T22:29:36.812Z,78.70
2018-02-09T22:32:03.012Z,78.40
2018-02-09T22:34:29.250Z,78.30
2018-02-09T22:36:56.188Z,78.80
2018-02-09T22:39:22.360Z,78.70
2018-02-09T22:41:48.601Z,78.20
2018-02-09T22:44:14.802Z,77.90
2018-02-09T22:46:41.044Z,78.20
2018-02-09T22:49:07.262Z,78.00
2018-02-09T22:51:33.469Z,78.10
2018-02-09T22:56:27.552Z,78.20
2018-02-09T22:58:54.490Z,78.80
2018-02-09T23:01:20.745Z,78.50
2018-02-09T23:03:47.688Z,79.20
2018-02-09T23:06:14.579Z,79.00
2018-02-09T23:08:40.795Z,78.30
2018-02-09T23:11:06.985Z,77.90
2018-02-09T23:13:33.944Z,78.60
2018-02-09T23:16:00.136Z,78.40
2018-02-09T23:18:26.388Z,77.70
2018-02-09T23:20:53.302Z,77.40
2018-02-09T23:23:19.463Z,77.60
2018-02-09T23:25:46.362Z,78.40
2018-02-09T23:28:12.600Z,78.00
2018-02-09T23:30:38.773Z,78.50
2018-02-09T23:33:05.721Z,78.30
2018-02-09T23:35:32.630Z,78.50
2018-02-09T23:37:58.886Z,78.10
2018-02-09T23:40:25.851Z,78.40
2018-02-09T23:42:52.037Z,78.30
2018-02-09T23:45:18.290Z,78.10
2018-02-09T23:47:45.193Z,78.50
2018-02-09T23:50:11.409Z,78.10
2018-02-09T23:52:37.593Z,78.50
2018-02-09T23:55:04.515Z,78.30
2018-02-09T23:57:31.490Z,78.10
2018-02-09T23:59:57.586Z,77.90
